sensor_id;sensor_type;location;lat;lon;timestamp;temperature;humidity
59007;DHT22;44792;52.760;6.726;2022-10-04T00:02:05;12.70;99.90
59007;DHT22;44792;52.760;6.726;2022-10-04T00:04:44;12.70;99.90
59007;DHT22;44792;52.760;6.726;2022-10-04T00:09:51;12.70;99.90
59007;DHT22;44792;52.760;6.726;2022-10-04T00:12:29;12.70;99.90
59007;DHT22;44792;52.760;6.726;2022-10-04T00:14:58;12.70;99.90
59007;DHT22;44792;52.760;6.726;2022-10-04T00:17:29;12.70;99.90
59007;DHT22;44792;52.760;6.726;2022-10-04T00:19:57;12.70;99.90
59007;DHT22;44792;52.760;6.726;2022-10-04T00:22:25;12.70;99.90
59007;DHT22;44792;52.760;6.726;2022-10-04T00:30:44;12.70;99.90
59007;DHT22;44792;52.760;6.726;2022-10-04T00:33:10;12.70;99.90
59007;DHT22;44792;52.760;6.726;2022-10-04T00:38:24;12.60;99.90
59007;DHT22;44792;52.760;6.726;2022-10-04T00:41:02;12.60;99.90
59007;DHT22;44792;52.760;6.726;2022-10-04T00:43:39;12.60;99.90
59007;DHT22;44792;52.760;6.726;2022-10-04T00:46:13;12.60;99.90
59007;DHT22;44792;52.760;6.726;2022-10-04T00:48:49;12.60;99.90
59007;DHT22;44792;52.760;6.726;2022-10-04T00:51:23;12.60;99.90
59007;DHT22;44792;52.760;6.726;2022-10-04T00:56:46;12.60;99.90
59007;DHT22;44792;52.760;6.726;2022-10-04T00:59:29;12.60;99.90
59007;DHT22;44792;52.760;6.726;2022-10-04T01:07:31;12.60;99.90
59007;DHT22;44792;52.760;6.726;2022-10-04T01:10:03;12.60;99.90
59007;DHT22;44792;52.760;6.726;2022-10-04T01:12:44;12.60;99.90
59007;DHT22;44792;52.760;6.726;2022-10-04T01:15:27;12.50;99.90
59007;DHT22;44792;52.760;6.726;2022-10-04T01:31:32;12.40;99.90
59007;DHT22;44792;52.760;6.726;2022-10-04T01:33:59;12.50;99.90
59007;DHT22;44792;52.760;6.726;2022-10-04T01:36:26;12.40;99.90
59007;DHT22;44792;52.760;6.726;2022-10-04T01:38:55;12.50;99.90
59007;DHT22;44792;52.760;6.726;2022-10-04T01:41:26;12.40;99.90
59007;DHT22;44792;52.760;6.726;2022-10-04T01:43:54;12.50;99.90
59007;DHT22;44792;52.760;6.726;2022-10-04T01:46:30;12.50;99.90
59007;DHT22;44792;52.760;6.726;2022-10-04T01:49:00;12.50;99.90
59007;DHT22;44792;52.760;6.726;2022-10-04T01:51:31;12.50;99.90
59007;DHT22;44792;52.760;6.726;2022-10-04T01:54:13;12.50;99.90
59007;DHT22;44792;52.760;6.726;2022-10-04T01:56:49;12.50;99.90
59007;DHT22;44792;52.760;6.726;2022-10-04T01:59:23;12.50;99.90
59007;DHT22;44792;52.760;6.726;2022-10-04T02:01:59;12.50;99.90
59007;DHT22;44792;52.760;6.726;2022-10-04T02:04:29;12.50;99.90
59007;DHT22;44792;52.760;6.726;2022-10-04T02:06:58;12.50;99.90
59007;DHT22;44792;52.760;6.726;2022-10-04T02:09:31;12.50;99.90
59007;DHT22;44792;52.760;6.726;2022-10-04T02:11:57;12.50;99.90
59007;DHT22;44792;52.760;6.726;2022-10-04T02:14:26;12.50;99.90
59007;DHT22;44792;52.760;6.726;2022-10-04T02:16:53;12.50;99.90
59007;DHT22;44792;52.760;6.726;2022-10-04T02:19:21;12.50;99.90
59007;DHT22;44792;52.760;6.726;2022-10-04T02:21:50;12.50;99.90
59007;DHT22;44792;52.760;6.726;2022-10-04T02:24:17;12.50;99.90
59007;DHT22;44792;52.760;6.726;2022-10-04T02:26:49;12.50;99.90
59007;DHT22;44792;52.760;6.726;2022-10-04T02:29:16;12.40;99.90
59007;DHT22;44792;52.760;6.726;2022-10-04T02:31:43;12.40;99.90
59007;DHT22;44792;52.760;6.726;2022-10-04T02:34:28;12.40;99.90
59007;DHT22;44792;52.760;6.726;2022-10-04T02:36:54;12.40;99.90
59007;DHT22;44792;52.760;6.726;2022-10-04T02:39:25;12.40;99.90
59007;DHT22;44792;52.760;6.726;2022-10-04T02:42:03;12.40;99.90
59007;DHT22;44792;52.760;6.726;2022-10-04T02:44:42;12.40;99.90
59007;DHT22;44792;52.760;6.726;2022-10-04T02:47:12;12.30;99.90
59007;DHT22;44792;52.760;6.726;2022-10-04T02:49:50;12.30;99.90
59007;DHT22;44792;52.760;6.726;2022-10-04T02:52:41;12.30;99.90
59007;DHT22;44792;52.760;6.726;2022-10-04T02:55:24;12.20;99.90
59007;DHT22;44792;52.760;6.726;2022-10-04T02:57:52;12.20;99.90
59007;DHT22;44792;52.760;6.726;2022-10-04T03:03:18;12.20;99.90
59007;DHT22;44792;52.760;6.726;2022-10-04T03:06:06;12.20;99.90
59007;DHT22;44792;52.760;6.726;2022-10-04T03:11:07;12.10;99.90
59007;DHT22;44792;52.760;6.726;2022-10-04T03:13:34;12.10;99.90
59007;DHT22;44792;52.760;6.726;2022-10-04T03:16:01;12.00;99.90
59007;DHT22;44792;52.760;6.726;2022-10-04T03:18:28;12.10;99.90
59007;DHT22;44792;52.760;6.726;2022-10-04T03:20:56;12.00;99.90
59007;DHT22;44792;52.760;6.726;2022-10-04T03:23:22;12.00;99.90
59007;DHT22;44792;52.760;6.726;2022-10-04T03:28:39;12.00;99.90
59007;DHT22;44792;52.760;6.726;2022-10-04T03:31:05;11.90;99.90
59007;DHT22;44792;52.760;6.726;2022-10-04T03:33:31;11.90;99.90
59007;DHT22;44792;52.760;6.726;2022-10-04T03:35:58;11.90;99.90
59007;DHT22;44792;52.760;6.726;2022-10-04T03:38:26;11.90;99.90
59007;DHT22;44792;52.760;6.726;2022-10-04T03:40:55;11.90;99.90
59007;DHT22;44792;52.760;6.726;2022-10-04T03:43:25;11.90;99.90
59007;DHT22;44792;52.760;6.726;2022-10-04T03:45:51;11.90;99.90
59007;DHT22;44792;52.760;6.726;2022-10-04T03:48:26;11.90;99.90
59007;DHT22;44792;52.760;6.726;2022-10-04T03:50:53;11.90;99.90
59007;DHT22;44792;52.760;6.726;2022-10-04T03:56:16;11.80;99.90
59007;DHT22;44792;52.760;6.726;2022-10-04T03:58:42;11.80;99.90
59007;DHT22;44792;52.760;6.726;2022-10-04T04:01:20;11.80;99.90
59007;DHT22;44792;52.760;6.726;2022-10-04T04:03:55;11.80;99.90
59007;DHT22;44792;52.760;6.726;2022-10-04T04:06:22;11.80;99.90
59007;DHT22;44792;52.760;6.726;2022-10-04T04:08:52;11.80;99.90
59007;DHT22;44792;52.760;6.726;2022-10-04T04:11:24;11.80;99.90
59007;DHT22;44792;52.760;6.726;2022-10-04T04:14:13;11.80;99.90
59007;DHT22;44792;52.760;6.726;2022-10-04T04:16:41;11.80;99.90
59007;DHT22;44792;52.760;6.726;2022-10-04T04:19:12;11.70;99.90
59007;DHT22;44792;52.760;6.726;2022-10-04T04:21:40;11.70;99.90
59007;DHT22;44792;52.760;6.726;2022-10-04T04:24:18;11.60;99.90
59007;DHT22;44792;52.760;6.726;2022-10-04T04:26:52;11.60;99.90
59007;DHT22;44792;52.760;6.726;2022-10-04T04:29:35;11.60;99.90
59007;DHT22;44792;52.760;6.726;2022-10-04T04:32:20;11.70;99.90
59007;DHT22;44792;52.760;6.726;2022-10-04T04:34:55;11.60;99.90
59007;DHT22;44792;52.760;6.726;2022-10-04T04:37:21;11.60;99.90
59007;DHT22;44792;52.760;6.726;2022-10-04T04:39:51;11.60;99.90
59007;DHT22;44792;52.760;6.726;2022-10-04T04:42:20;11.60;99.90
59007;DHT22;44792;52.760;6.726;2022-10-04T04:45:15;11.50;99.90
59007;DHT22;44792;52.760;6.726;2022-10-04T04:47:44;11.50;99.90
59007;DHT22;44792;52.760;6.726;2022-10-04T04:52:50;11.50;99.90
59007;DHT22;44792;52.760;6.726;2022-10-04T04:55:25;11.40;99.90
59007;DHT22;44792;52.760;6.726;2022-10-04T04:57:55;11.40;99.90
59007;DHT22;44792;52.760;6.726;2022-10-04T05:00:26;11.40;99.90
59007;DHT22;44792;52.760;6.726;2022-10-04T05:02:57;11.40;99.90
59007;DHT22;44792;52.760;6.726;2022-10-04T05:05:28;11.40;99.90
59007;DHT22;44792;52.760;6.726;2022-10-04T05:10:35;11.30;99.90
59007;DHT22;44792;52.760;6.726;2022-10-04T05:13:02;11.30;99.90
59007;DHT22;44792;52.760;6.726;2022-10-04T05:15:37;11.30;99.90
59007;DHT22;44792;52.760;6.726;2022-10-04T05:18:35;11.30;99.90
59007;DHT22;44792;52.760;6.726;2022-10-04T05:21:26;11.30;99.90
59007;DHT22;44792;52.760;6.726;2022-10-04T05:23:50;11.20;99.90
59007;DHT22;44792;52.760;6.726;2022-10-04T05:26:26;11.20;99.90
59007;DHT22;44792;52.760;6.726;2022-10-04T05:28:55;11.20;99.90
59007;DHT22;44792;52.760;6.726;2022-10-04T05:34:25;11.10;99.90
59007;DHT22;44792;52.760;6.726;2022-10-04T05:42:21;11.00;99.90
59007;DHT22;44792;52.760;6.726;2022-10-04T05:44:53;11.00;99.90
59007;DHT22;44792;52.760;6.726;2022-10-04T05:47:21;10.90;99.90
59007;DHT22;44792;52.760;6.726;2022-10-04T05:49:50;10.90;99.90
59007;DHT22;44792;52.760;6.726;2022-10-04T05:52:33;10.90;99.90
59007;DHT22;44792;52.760;6.726;2022-10-04T05:55:27;10.80;99.90
59007;DHT22;44792;52.760;6.726;2022-10-04T06:01:25;10.90;99.90
59007;DHT22;44792;52.760;6.726;2022-10-04T06:04:26;10.80;99.90
59007;DHT22;44792;52.760;6.726;2022-10-04T06:07:10;10.80;99.90
59007;DHT22;44792;52.760;6.726;2022-10-04T06:10:05;10.80;99.90
59007;DHT22;44792;52.760;6.726;2022-10-04T06:13:00;10.90;99.90
59007;DHT22;44792;52.760;6.726;2022-10-04T06:23:43;10.90;99.90
59007;DHT22;44792;52.760;6.726;2022-10-04T06:26:13;10.90;99.90
59007;DHT22;44792;52.760;6.726;2022-10-04T06:28:49;10.90;99.90
59007;DHT22;44792;52.760;6.726;2022-10-04T06:34:14;11.00;99.90
59007;DHT22;44792;52.760;6.726;2022-10-04T06:42:38;11.10;99.90
59007;DHT22;44792;52.760;6.726;2022-10-04T06:45:26;11.10;99.90
59007;DHT22;44792;52.760;6.726;2022-10-04T06:48:20;11.10;99.90
59007;DHT22;44792;52.760;6.726;2022-10-04T06:53:22;11.20;99.90
59007;DHT22;44792;52.760;6.726;2022-10-04T06:56:00;11.20;99.90
59007;DHT22;44792;52.760;6.726;2022-10-04T07:12:52;11.40;99.90
59007;DHT22;44792;52.760;6.726;2022-10-04T07:15:26;11.50;99.90
59007;DHT22;44792;52.760;6.726;2022-10-04T07:17:55;11.50;99.90
59007;DHT22;44792;52.760;6.726;2022-10-04T07:20:29;11.60;99.90
59007;DHT22;44792;52.760;6.726;2022-10-04T07:23:23;11.70;99.90
59007;DHT22;44792;52.760;6.726;2022-10-04T07:25:53;11.70;99.90
59007;DHT22;44792;52.760;6.726;2022-10-04T07:28:31;11.90;99.90
59007;DHT22;44792;52.760;6.726;2022-10-04T07:31:27;11.90;99.90
59007;DHT22;44792;52.760;6.726;2022-10-04T07:34:00;12.00;99.90
59007;DHT22;44792;52.760;6.726;2022-10-04T07:36:40;12.00;99.90
59007;DHT22;44792;52.760;6.726;2022-10-04T07:39:18;12.10;99.90
59007;DHT22;44792;52.760;6.726;2022-10-04T07:41:51;12.10;99.90
59007;DHT22;44792;52.760;6.726;2022-10-04T07:47:11;12.10;99.90
59007;DHT22;44792;52.760;6.726;2022-10-04T07:49:39;12.10;99.90
59007;DHT22;44792;52.760;6.726;2022-10-04T07:55:27;12.10;99.90
59007;DHT22;44792;52.760;6.726;2022-10-04T07:58:03;12.20;99.90
59007;DHT22;44792;52.760;6.726;2022-10-04T08:03:43;12.20;99.90
59007;DHT22;44792;52.760;6.726;2022-10-04T08:06:12;12.20;99.90
59007;DHT22;44792;52.760;6.726;2022-10-04T08:11:36;12.30;99.90
59007;DHT22;44792;52.760;6.726;2022-10-04T08:17:23;12.40;99.90
59007;DHT22;44792;52.760;6.726;2022-10-04T08:20:01;12.50;99.90
59007;DHT22;44792;52.760;6.726;2022-10-04T08:22:49;12.60;99.90
59007;DHT22;44792;52.760;6.726;2022-10-04T08:25:32;12.70;99.90
59007;DHT22;44792;52.760;6.726;2022-10-04T08:32:00;12.90;99.90
59007;DHT22;44792;52.760;6.726;2022-10-04T09:04:44;13.50;99.90
59007;DHT22;44792;52.760;6.726;2022-10-04T09:16:29;13.40;99.90
59007;DHT22;44792;52.760;6.726;2022-10-04T09:19:36;13.40;99.90
59007;DHT22;44792;52.760;6.726;2022-10-04T09:22:39;13.50;99.90
59007;DHT22;44792;52.760;6.726;2022-10-04T09:47:43;13.70;99.90
59007;DHT22;44792;52.760;6.726;2022-10-04T09:50:17;13.80;99.90
59007;DHT22;44792;52.760;6.726;2022-10-04T10:01:34;14.10;99.90
59007;DHT22;44792;52.760;6.726;2022-10-04T10:21:39;14.50;99.90
59007;DHT22;44792;52.760;6.726;2022-10-04T10:27:18;14.50;99.90
59007;DHT22;44792;52.760;6.726;2022-10-04T10:33:31;14.60;99.90
59007;DHT22;44792;52.760;6.726;2022-10-04T10:47:20;14.70;99.90
59007;DHT22;44792;52.760;6.726;2022-10-04T10:58:50;14.90;99.90
59007;DHT22;44792;52.760;6.726;2022-10-04T11:01:55;15.00;99.90
59007;DHT22;44792;52.760;6.726;2022-10-04T11:04:44;15.10;99.90
59007;DHT22;44792;52.760;6.726;2022-10-04T11:07:48;15.20;99.90
59007;DHT22;44792;52.760;6.726;2022-10-04T11:18:26;15.40;99.90
59007;DHT22;44792;52.760;6.726;2022-10-04T11:23:50;15.40;99.90
59007;DHT22;44792;52.760;6.726;2022-10-04T11:29:12;15.50;99.90
59007;DHT22;44792;52.760;6.726;2022-10-04T11:32:28;15.50;99.90
59007;DHT22;44792;52.760;6.726;2022-10-04T11:37:56;15.60;99.90
59007;DHT22;44792;52.760;6.726;2022-10-04T11:43:33;15.60;99.90
59007;DHT22;44792;52.760;6.726;2022-10-04T11:49:21;15.60;99.90
59007;DHT22;44792;52.760;6.726;2022-10-04T11:52:09;15.70;99.90
59007;DHT22;44792;52.760;6.726;2022-10-04T12:00:14;15.70;99.90
59007;DHT22;44792;52.760;6.726;2022-10-04T12:08:11;15.70;99.90
59007;DHT22;44792;52.760;6.726;2022-10-04T12:10:42;15.80;99.90
59007;DHT22;44792;52.760;6.726;2022-10-04T12:16:39;15.70;99.90
59007;DHT22;44792;52.760;6.726;2022-10-04T12:25:24;16.00;99.90
59007;DHT22;44792;52.760;6.726;2022-10-04T12:31:39;15.90;99.90
59007;DHT22;44792;52.760;6.726;2022-10-04T12:34:14;16.00;99.90
59007;DHT22;44792;52.760;6.726;2022-10-04T12:39:36;16.00;99.90
59007;DHT22;44792;52.760;6.726;2022-10-04T12:42:47;16.10;99.90
59007;DHT22;44792;52.760;6.726;2022-10-04T12:45:27;16.10;99.90
59007;DHT22;44792;52.760;6.726;2022-10-04T12:56:13;16.10;99.90
59007;DHT22;44792;52.760;6.726;2022-10-04T13:04:27;16.20;99.90
59007;DHT22;44792;52.760;6.726;2022-10-04T13:10:00;16.20;99.90
59007;DHT22;44792;52.760;6.726;2022-10-04T13:20:19;16.40;99.90
59007;DHT22;44792;52.760;6.726;2022-10-04T13:26:14;16.40;99.90
59007;DHT22;44792;52.760;6.726;2022-10-04T13:28:50;16.40;99.90
59007;DHT22;44792;52.760;6.726;2022-10-04T13:31:29;16.40;99.90
59007;DHT22;44792;52.760;6.726;2022-10-04T13:37:17;16.30;99.90
59007;DHT22;44792;52.760;6.726;2022-10-04T13:39:47;16.20;99.90
59007;DHT22;44792;52.760;6.726;2022-10-04T13:45:19;16.30;99.90
59007;DHT22;44792;52.760;6.726;2022-10-04T13:48:19;16.20;99.90
59007;DHT22;44792;52.760;6.726;2022-10-04T13:57:02;16.40;99.90
59007;DHT22;44792;52.760;6.726;2022-10-04T14:02:24;16.50;99.90
59007;DHT22;44792;52.760;6.726;2022-10-04T14:19:23;16.50;99.90
59007;DHT22;44792;52.760;6.726;2022-10-04T14:30:20;16.60;99.90
59007;DHT22;44792;52.760;6.726;2022-10-04T14:41:57;16.60;99.90
59007;DHT22;44792;52.760;6.726;2022-10-04T14:44:39;16.50;99.90
59007;DHT22;44792;52.760;6.726;2022-10-04T14:50:17;16.60;99.90
59007;DHT22;44792;52.760;6.726;2022-10-04T14:53:14;16.60;99.90
59007;DHT22;44792;52.760;6.726;2022-10-04T15:01:14;16.50;99.90
59007;DHT22;44792;52.760;6.726;2022-10-04T15:04:25;16.50;99.90
59007;DHT22;44792;52.760;6.726;2022-10-04T15:06:58;16.50;99.90
59007;DHT22;44792;52.760;6.726;2022-10-04T15:15:20;16.50;99.90
59007;DHT22;44792;52.760;6.726;2022-10-04T15:20:20;16.50;99.90
59007;DHT22;44792;52.760;6.726;2022-10-04T15:22:54;16.50;99.90
59007;DHT22;44792;52.760;6.726;2022-10-04T15:25:44;16.50;99.90
59007;DHT22;44792;52.760;6.726;2022-10-04T15:31:16;16.50;99.90
59007;DHT22;44792;52.760;6.726;2022-10-04T15:34:05;16.40;99.90
59007;DHT22;44792;52.760;6.726;2022-10-04T15:42:33;16.30;99.90
59007;DHT22;44792;52.760;6.726;2022-10-04T15:50:31;16.20;99.90
59007;DHT22;44792;52.760;6.726;2022-10-04T15:59:05;16.20;99.90
59007;DHT22;44792;52.760;6.726;2022-10-04T16:15:43;16.10;99.90
59007;DHT22;44792;52.760;6.726;2022-10-04T16:23:35;16.00;99.90
59007;DHT22;44792;52.760;6.726;2022-10-04T16:29:23;15.90;99.90
59007;DHT22;44792;52.760;6.726;2022-10-04T16:32:26;15.90;99.90
59007;DHT22;44792;52.760;6.726;2022-10-04T16:34:59;15.90;99.90
59007;DHT22;44792;52.760;6.726;2022-10-04T16:37:58;15.90;99.90
59007;DHT22;44792;52.760;6.726;2022-10-04T16:40:55;15.80;99.90
59007;DHT22;44792;52.760;6.726;2022-10-04T16:43:27;15.70;99.90
59007;DHT22;44792;52.760;6.726;2022-10-04T16:46:34;15.70;99.90
59007;DHT22;44792;52.760;6.726;2022-10-04T16:49:23;15.60;99.90
59007;DHT22;44792;52.760;6.726;2022-10-04T16:54:39;15.60;99.90
59007;DHT22;44792;52.760;6.726;2022-10-04T16:57:12;15.60;99.90
59007;DHT22;44792;52.760;6.726;2022-10-04T17:02:41;15.60;99.90
59007;DHT22;44792;52.760;6.726;2022-10-04T17:08:17;15.70;99.90
59007;DHT22;44792;52.760;6.726;2022-10-04T17:13:34;15.70;99.90
59007;DHT22;44792;52.760;6.726;2022-10-04T17:20:59;15.60;99.90
59007;DHT22;44792;52.760;6.726;2022-10-04T17:23:48;15.60;99.90
59007;DHT22;44792;52.760;6.726;2022-10-04T17:31:51;15.50;99.90
59007;DHT22;44792;52.760;6.726;2022-10-04T17:40:35;15.40;99.90
59007;DHT22;44792;52.760;6.726;2022-10-04T17:43:24;15.40;99.90
59007;DHT22;44792;52.760;6.726;2022-10-04T17:48:54;15.30;99.90
59007;DHT22;44792;52.760;6.726;2022-10-04T17:51:45;15.30;99.90
59007;DHT22;44792;52.760;6.726;2022-10-04T17:54:41;15.20;99.90
59007;DHT22;44792;52.760;6.726;2022-10-04T18:00:12;15.20;99.90
59007;DHT22;44792;52.760;6.726;2022-10-04T18:05:27;15.20;99.90
59007;DHT22;44792;52.760;6.726;2022-10-04T18:08:12;15.10;99.90
59007;DHT22;44792;52.760;6.726;2022-10-04T18:10:53;15.10;99.90
59007;DHT22;44792;52.760;6.726;2022-10-04T18:13:48;15.10;99.90
59007;DHT22;44792;52.760;6.726;2022-10-04T18:18:44;15.10;99.90
59007;DHT22;44792;52.760;6.726;2022-10-04T18:21:30;15.10;99.90
59007;DHT22;44792;52.760;6.726;2022-10-04T18:23:57;15.20;99.90
59007;DHT22;44792;52.760;6.726;2022-10-04T18:26:26;15.10;99.90
59007;DHT22;44792;52.760;6.726;2022-10-04T18:28:52;15.10;99.90
59007;DHT22;44792;52.760;6.726;2022-10-04T18:31:36;15.10;99.90
59007;DHT22;44792;52.760;6.726;2022-10-04T18:34:26;15.20;99.90
59007;DHT22;44792;52.760;6.726;2022-10-04T18:39:29;15.10;99.90
59007;DHT22;44792;52.760;6.726;2022-10-04T18:42:27;15.20;99.90
59007;DHT22;44792;52.760;6.726;2022-10-04T18:44:59;15.10;99.90
59007;DHT22;44792;52.760;6.726;2022-10-04T18:47:36;15.20;99.90
59007;DHT22;44792;52.760;6.726;2022-10-04T18:50:15;15.20;99.90
59007;DHT22;44792;52.760;6.726;2022-10-04T18:53:02;15.10;99.90
59007;DHT22;44792;52.760;6.726;2022-10-04T18:58:44;15.20;99.90
59007;DHT22;44792;52.760;6.726;2022-10-04T19:04:39;15.20;99.90
59007;DHT22;44792;52.760;6.726;2022-10-04T19:07:32;15.20;99.90
59007;DHT22;44792;52.760;6.726;2022-10-04T19:12:57;15.20;99.90
59007;DHT22;44792;52.760;6.726;2022-10-04T19:16:39;15.20;99.90
59007;DHT22;44792;52.760;6.726;2022-10-04T19:21:18;15.20;99.90
59007;DHT22;44792;52.760;6.726;2022-10-04T19:24:06;15.20;99.90
59007;DHT22;44792;52.760;6.726;2022-10-04T19:26:39;15.20;99.90
59007;DHT22;44792;52.760;6.726;2022-10-04T19:29:36;15.20;99.90
59007;DHT22;44792;52.760;6.726;2022-10-04T19:35:27;15.20;99.90
59007;DHT22;44792;52.760;6.726;2022-10-04T19:40:51;15.20;99.90
59007;DHT22;44792;52.760;6.726;2022-10-04T19:43:39;15.20;99.90
59007;DHT22;44792;52.760;6.726;2022-10-04T19:46:42;15.20;99.90
59007;DHT22;44792;52.760;6.726;2022-10-04T19:49:19;15.20;99.90
59007;DHT22;44792;52.760;6.726;2022-10-04T19:51:55;15.20;99.90
59007;DHT22;44792;52.760;6.726;2022-10-04T19:54:30;15.20;99.90
59007;DHT22;44792;52.760;6.726;2022-10-04T19:57:00;15.20;99.90
59007;DHT22;44792;52.760;6.726;2022-10-04T19:59:31;15.20;99.90
59007;DHT22;44792;52.760;6.726;2022-10-04T20:02:00;15.20;99.90
59007;DHT22;44792;52.760;6.726;2022-10-04T20:04:26;15.20;99.90
59007;DHT22;44792;52.760;6.726;2022-10-04T20:07:16;15.20;99.90
59007;DHT22;44792;52.760;6.726;2022-10-04T20:12:37;15.20;99.90
59007;DHT22;44792;52.760;6.726;2022-10-04T20:17:43;15.20;99.90
59007;DHT22;44792;52.760;6.726;2022-10-04T20:20:13;15.20;99.90
59007;DHT22;44792;52.760;6.726;2022-10-04T20:30:56;15.30;99.90
59007;DHT22;44792;52.760;6.726;2022-10-04T20:36:01;15.20;99.90
59007;DHT22;44792;52.760;6.726;2022-10-04T20:38:47;15.30;99.90
59007;DHT22;44792;52.760;6.726;2022-10-04T20:43:54;15.20;99.90
59007;DHT22;44792;52.760;6.726;2022-10-04T20:46:24;15.20;99.90
59007;DHT22;44792;52.760;6.726;2022-10-04T20:48:52;15.20;99.90
59007;DHT22;44792;52.760;6.726;2022-10-04T20:51:19;15.20;99.90
59007;DHT22;44792;52.760;6.726;2022-10-04T20:53:46;15.20;99.90
59007;DHT22;44792;52.760;6.726;2022-10-04T20:56:30;15.20;99.90
59007;DHT22;44792;52.760;6.726;2022-10-04T20:58:58;15.30;99.90
59007;DHT22;44792;52.760;6.726;2022-10-04T21:01:30;15.20;99.90
59007;DHT22;44792;52.760;6.726;2022-10-04T21:04:22;15.30;99.90
59007;DHT22;44792;52.760;6.726;2022-10-04T21:07:01;15.30;99.90
59007;DHT22;44792;52.760;6.726;2022-10-04T21:09:29;15.30;99.90
59007;DHT22;44792;52.760;6.726;2022-10-04T21:11:58;15.30;99.90
59007;DHT22;44792;52.760;6.726;2022-10-04T21:14:26;15.30;99.90
59007;DHT22;44792;52.760;6.726;2022-10-04T21:16:53;15.30;99.90
59007;DHT22;44792;52.760;6.726;2022-10-04T21:21:58;15.30;99.90
59007;DHT22;44792;52.760;6.726;2022-10-04T21:24:53;15.30;99.90
59007;DHT22;44792;52.760;6.726;2022-10-04T21:27:28;15.30;99.90
59007;DHT22;44792;52.760;6.726;2022-10-04T21:29:54;15.30;99.90
59007;DHT22;44792;52.760;6.726;2022-10-04T21:32:21;15.30;99.90
59007;DHT22;44792;52.760;6.726;2022-10-04T21:34:47;15.30;99.90
59007;DHT22;44792;52.760;6.726;2022-10-04T21:37:13;15.30;99.90
59007;DHT22;44792;52.760;6.726;2022-10-04T21:39:39;15.30;99.90
59007;DHT22;44792;52.760;6.726;2022-10-04T21:42:04;15.30;99.90
59007;DHT22;44792;52.760;6.726;2022-10-04T21:44:30;15.30;99.90
59007;DHT22;44792;52.760;6.726;2022-10-04T21:46:55;15.30;99.90
59007;DHT22;44792;52.760;6.726;2022-10-04T21:49:21;15.30;99.90
59007;DHT22;44792;52.760;6.726;2022-10-04T21:51:46;15.30;99.90
59007;DHT22;44792;52.760;6.726;2022-10-04T21:54:12;15.30;99.90
59007;DHT22;44792;52.760;6.726;2022-10-04T21:56:37;15.30;99.90
59007;DHT22;44792;52.760;6.726;2022-10-04T21:59:03;15.30;99.90
59007;DHT22;44792;52.760;6.726;2022-10-04T22:01:29;15.30;99.90
59007;DHT22;44792;52.760;6.726;2022-10-04T22:03:54;15.30;99.90
59007;DHT22;44792;52.760;6.726;2022-10-04T22:06:20;15.30;99.90
59007;DHT22;44792;52.760;6.726;2022-10-04T22:08:46;15.30;99.90
59007;DHT22;44792;52.760;6.726;2022-10-04T22:11:11;15.30;99.90
59007;DHT22;44792;52.760;6.726;2022-10-04T22:13:37;15.30;99.90
59007;DHT22;44792;52.760;6.726;2022-10-04T22:16:03;15.30;99.90
59007;DHT22;44792;52.760;6.726;2022-10-04T22:18:30;15.30;99.90
59007;DHT22;44792;52.760;6.726;2022-10-04T22:20:56;15.30;99.90
59007;DHT22;44792;52.760;6.726;2022-10-04T22:23:23;15.30;99.90
59007;DHT22;44792;52.760;6.726;2022-10-04T22:25:50;15.30;99.90
59007;DHT22;44792;52.760;6.726;2022-10-04T22:28:24;15.30;99.90
59007;DHT22;44792;52.760;6.726;2022-10-04T22:30:51;15.30;99.90
59007;DHT22;44792;52.760;6.726;2022-10-04T22:33:30;15.30;99.90
59007;DHT22;44792;52.760;6.726;2022-10-04T22:36:25;15.30;99.90
59007;DHT22;44792;52.760;6.726;2022-10-04T22:38:59;15.30;99.90
59007;DHT22;44792;52.760;6.726;2022-10-04T22:41:31;15.30;99.90
59007;DHT22;44792;52.760;6.726;2022-10-04T22:43:57;15.30;99.90
59007;DHT22;44792;52.760;6.726;2022-10-04T22:46:30;15.30;99.90
59007;DHT22;44792;52.760;6.726;2022-10-04T22:48:57;15.30;99.90
59007;DHT22;44792;52.760;6.726;2022-10-04T22:51:27;15.30;99.90
59007;DHT22;44792;52.760;6.726;2022-10-04T22:53:53;15.30;99.90
59007;DHT22;44792;52.760;6.726;2022-10-04T22:56:19;15.30;99.90
59007;DHT22;44792;52.760;6.726;2022-10-04T22:58:45;15.30;99.90
59007;DHT22;44792;52.760;6.726;2022-10-04T23:01:19;15.30;99.90
59007;DHT22;44792;52.760;6.726;2022-10-04T23:03:47;15.30;99.90
59007;DHT22;44792;52.760;6.726;2022-10-04T23:06:13;15.30;99.90
59007;DHT22;44792;52.760;6.726;2022-10-04T23:08:40;15.30;99.90
59007;DHT22;44792;52.760;6.726;2022-10-04T23:11:07;15.30;99.90
59007;DHT22;44792;52.760;6.726;2022-10-04T23:13:32;15.30;99.90
59007;DHT22;44792;52.760;6.726;2022-10-04T23:16:00;15.30;99.90
59007;DHT22;44792;52.760;6.726;2022-10-04T23:18:27;15.30;99.90
59007;DHT22;44792;52.760;6.726;2022-10-04T23:20:57;15.30;99.90
59007;DHT22;44792;52.760;6.726;2022-10-04T23:23:24;15.30;99.90
59007;DHT22;44792;52.760;6.726;2022-10-04T23:25:52;15.30;99.90
59007;DHT22;44792;52.760;6.726;2022-10-04T23:28:18;15.30;99.90
59007;DHT22;44792;52.760;6.726;2022-10-04T23:30:46;15.30;99.90
59007;DHT22;44792;52.760;6.726;2022-10-04T23:33:18;15.30;99.90
59007;DHT22;44792;52.760;6.726;2022-10-04T23:35:43;15.30;99.90
59007;DHT22;44792;52.760;6.726;2022-10-04T23:38:17;15.30;99.90
59007;DHT22;44792;52.760;6.726;2022-10-04T23:40:43;15.30;99.90
59007;DHT22;44792;52.760;6.726;2022-10-04T23:43:19;15.30;99.90
59007;DHT22;44792;52.760;6.726;2022-10-04T23:45:45;15.30;99.90
59007;DHT22;44792;52.760;6.726;2022-10-04T23:48:16;15.30;99.90
59007;DHT22;44792;52.760;6.726;2022-10-04T23:50:44;15.30;99.90
59007;DHT22;44792;52.760;6.726;2022-10-04T23:53:20;15.30;99.90
59007;DHT22;44792;52.760;6.726;2022-10-04T23:55:46;15.30;99.90
59007;DHT22;44792;52.760;6.726;2022-10-04T23:58:19;15.30;99.90
